This is the latest recevied weather packets stored in our database for station/object HB9CYX-13. If no packets are shown the sender has not sent any weather packets the latest 10 day(s).
| Time | Temp. | Humidity | Pressure | Rain* | Wind** | Luminosity | Snow |
|---|---|---|---|---|---|---|---|
| 1777365262 | 20° C | 34% | 1016 hPa | 0 mm | - | - | - |
| 1777364515 | 20.56° C | 35% | 1016 hPa | 0 mm | - | - | - |
| 1777363768 | 20° C | 35% | 1016.1 hPa | 0 mm | - | - | - |
| 1777363021 | 19.44° C | 35% | 1016.2 hPa | 0 mm | - | - | - |
| 1777362274 | 18.89° C | 34% | 1016.3 hPa | 0 mm | - | - | - |
| 1777361528 | 18.89° C | 38% | 1016.3 hPa | 0 mm | - | - | - |
| 1777360781 | 17.22° C | 41% | 1016.6 hPa | 0 mm | - | - | - |
| 1777360034 | 17.78° C | 41% | 1016.6 hPa | 0 mm | - | - | - |
| 1777359288 | 16.67° C | 44% | 1016.8 hPa | 0 mm | - | - | - |
| 1777358540 | 15.56° C | 48% | 1017.1 hPa | 0 mm | - | - | - |
| 1777357793 | 13.89° C | 55% | 1017.4 hPa | 0 mm | - | - | - |
| 1777357045 | 10° C | 66% | 1018.2 hPa | 0 mm | - | - | - |
| 1777356297 | 10° C | 66% | 1018.2 hPa | 0 mm | - | - | - |
| 1777355549 | 9.44° C | 68% | 1018.1 hPa | 0 mm | - | - | - |
| 1777354801 | 9.44° C | 69% | 1018.1 hPa | 0 mm | - | - | - |
| 1777354053 | 8.89° C | 69% | 1018.3 hPa | 0 mm | - | - | - |
| 1777353305 | 8.89° C | 70% | 1018.3 hPa | 0 mm | - | - | - |
| 1777352557 | 8.33° C | 71% | 1018.3 hPa | 0 mm | - | - | - |
| 1777351810 | 8.33° C | 71% | 1018.1 hPa | 0 mm | - | - | - |
| 1777351066 | 8.33° C | 72% | 1018.1 hPa | 0 mm | - | - | - |
| 1777350315 | 8.33° C | 72% | 1018.1 hPa | 0 mm | - | - | - |
| 1777349566 | 8.33° C | 71% | 1018.1 hPa | 0 mm | - | - | - |
| 1777348818 | 8.89° C | 71% | 1018.1 hPa | 0 mm | - | - | - |
| 1777348072 | 8.89° C | 70% | 1018.2 hPa | 0 mm | - | - | - |
| 1777347324 | 8.89° C | 70% | 1018.1 hPa | 0 mm | - | - | - |
* Rain latest hour (hover to see other rain measurements)
** Current wind speed in m/s (hover to see current wind gust speed)